sim
Sign-in with your pilot id or email,
or register
Callsign
Passwort

Schedule Details

Flight Number: OEO7393
Departure: Detroit Metropolitan Wayne County Airport (KDTW) at 22:45
Arrival: Munich Airport (EDDM) at 07:30

Weather Information
Getting current METAR information for KDTW 231453Z 00000KT 8SM CLR 19/13 A3006 RMK AO2 SLP176 T01940128 50004
Getting current METAR information for EDDM 231520Z 25007KT 220V280 9999 FEW045 20/14 Q1009 NOSIG

Schedule Frequency

Route Map